sensor_id;sensor_type;location;lat;lon;timestamp;pressure;altitude;pressure_sealevel;temperature;humidity
32638;BME280;19045;52.268;10.506;2023-04-20T00:02:01;101133.31;;;5.49;98.87
32638;BME280;19045;52.268;10.506;2023-04-20T00:04:28;101129.63;;;5.50;98.68
32638;BME280;19045;52.268;10.506;2023-04-20T00:06:55;101120.81;;;5.56;98.87
32638;BME280;19045;52.268;10.506;2023-04-20T00:09:23;101121.22;;;5.53;98.76
32638;BME280;19045;52.268;10.506;2023-04-20T00:11:50;101116.28;;;5.56;99.22
32638;BME280;19045;52.268;10.506;2023-04-20T00:14:18;101114.22;;;5.58;99.57
32638;BME280;19045;52.268;10.506;2023-04-20T00:16:47;101110.13;;;5.62;100.00
32638;BME280;19045;52.268;10.506;2023-04-20T00:19:14;101116.03;;;5.71;99.75
32638;BME280;19045;52.268;10.506;2023-04-20T00:21:41;101109.09;;;5.70;99.49
32638;BME280;19045;52.268;10.506;2023-04-20T00:24:08;101116.47;;;5.68;99.17
32638;BME280;19045;52.268;10.506;2023-04-20T00:26:34;101121.78;;;5.68;100.00
32638;BME280;19045;52.268;10.506;2023-04-20T00:29:01;101114.44;;;5.70;100.00
32638;BME280;19045;52.268;10.506;2023-04-20T00:31:30;101107.63;;;5.81;99.43
32638;BME280;19045;52.268;10.506;2023-04-20T00:33:58;101105.59;;;5.76;98.60
32638;BME280;19045;52.268;10.506;2023-04-20T00:36:26;101105.78;;;5.74;98.83
32638;BME280;19045;52.268;10.506;2023-04-20T00:38:52;101099.03;;;5.72;100.00
32638;BME280;19045;52.268;10.506;2023-04-20T00:41:20;101101.09;;;5.77;100.00
32638;BME280;19045;52.268;10.506;2023-04-20T00:43:50;101093.47;;;5.73;100.00
32638;BME280;19045;52.268;10.506;2023-04-20T00:46:17;101091.44;;;5.82;99.26
32638;BME280;19045;52.268;10.506;2023-04-20T00:48:44;101090.19;;;5.78;99.89
32638;BME280;19045;52.268;10.506;2023-04-20T00:51:12;101085.91;;;5.70;100.00
32638;BME280;19045;52.268;10.506;2023-04-20T00:53:39;101077.06;;;5.83;99.91
32638;BME280;19045;52.268;10.506;2023-04-20T00:56:06;101079.75;;;5.77;99.90
32638;BME280;19045;52.268;10.506;2023-04-20T00:58:33;101067.44;;;5.82;100.00
32638;BME280;19045;52.268;10.506;2023-04-20T01:01:00;101071.34;;;5.86;100.00
32638;BME280;19045;52.268;10.506;2023-04-20T01:03:28;101064.13;;;5.93;99.05
32638;BME280;19045;52.268;10.506;2023-04-20T01:05:54;101064.94;;;5.94;99.04
32638;BME280;19045;52.268;10.506;2023-04-20T01:08:26;101048.75;;;5.95;99.30
32638;BME280;19045;52.268;10.506;2023-04-20T01:10:53;101046.94;;;5.89;99.01
32638;BME280;19045;52.268;10.506;2023-04-20T01:13:20;101045.47;;;5.87;99.90
32638;BME280;19045;52.268;10.506;2023-04-20T01:15:47;101052.47;;;5.81;100.00
32638;BME280;19045;52.268;10.506;2023-04-20T01:18:14;101045.88;;;5.84;100.00
32638;BME280;19045;52.268;10.506;2023-04-20T01:20:42;101043.47;;;5.76;100.00
32638;BME280;19045;52.268;10.506;2023-04-20T01:23:11;101032.41;;;5.65;100.00
32638;BME280;19045;52.268;10.506;2023-04-20T01:25:38;101044.72;;;5.73;100.00
32638;BME280;19045;52.268;10.506;2023-04-20T01:28:05;101035.28;;;5.64;100.00
32638;BME280;19045;52.268;10.506;2023-04-20T01:30:33;101034.47;;;5.63;100.00
32638;BME280;19045;52.268;10.506;2023-04-20T01:33:01;101051.28;;;5.64;100.00
32638;BME280;19045;52.268;10.506;2023-04-20T01:35:28;101032.22;;;5.60;100.00
32638;BME280;19045;52.268;10.506;2023-04-20T01:37:54;101032.81;;;5.69;100.00
32638;BME280;19045;52.268;10.506;2023-04-20T01:40:24;101030.78;;;5.64;100.00
32638;BME280;19045;52.268;10.506;2023-04-20T01:42:54;101029.53;;;5.67;100.00
32638;BME280;19045;52.268;10.506;2023-04-20T01:45:21;101023.38;;;5.73;100.00
32638;BME280;19045;52.268;10.506;2023-04-20T01:47:47;101020.94;;;5.65;100.00
32638;BME280;19045;52.268;10.506;2023-04-20T01:50:14;101014.75;;;5.71;100.00
32638;BME280;19045;52.268;10.506;2023-04-20T01:52:40;100993.44;;;5.71;100.00
32638;BME280;19045;52.268;10.506;2023-04-20T01:55:09;101020.13;;;5.64;100.00
32638;BME280;19045;52.268;10.506;2023-04-20T01:57:38;101010.84;;;5.73;100.00
32638;BME280;19045;52.268;10.506;2023-04-20T02:00:06;101018.22;;;5.78;100.00
32638;BME280;19045;52.268;10.506;2023-04-20T02:02:34;101009.63;;;5.76;100.00
32638;BME280;19045;52.268;10.506;2023-04-20T02:05:00;101014.97;;;5.76;100.00
32638;BME280;19045;52.268;10.506;2023-04-20T02:07:27;101008.22;;;5.60;100.00
32638;BME280;19045;52.268;10.506;2023-04-20T02:09:54;101009.63;;;5.76;100.00
32638;BME280;19045;52.268;10.506;2023-04-20T02:12:20;101009.81;;;5.81;100.00
32638;BME280;19045;52.268;10.506;2023-04-20T02:14:48;101009.41;;;5.78;100.00
32638;BME280;19045;52.268;10.506;2023-04-20T02:17:15;101007.13;;;5.81;100.00
32638;BME280;19045;52.268;10.506;2023-04-20T02:19:42;101006.56;;;5.72;100.00
32638;BME280;19045;52.268;10.506;2023-04-20T02:22:10;101009.00;;;5.74;100.00
32638;BME280;19045;52.268;10.506;2023-04-20T02:24:37;101004.91;;;5.78;100.00
32638;BME280;19045;52.268;10.506;2023-04-20T02:27:04;100997.13;;;5.77;100.00
32638;BME280;19045;52.268;10.506;2023-04-20T02:29:31;101007.16;;;5.74;100.00
32638;BME280;19045;52.268;10.506;2023-04-20T02:31:59;100995.94;;;5.66;100.00
32638;BME280;19045;52.268;10.506;2023-04-20T02:34:25;100997.97;;;5.64;100.00
32638;BME280;19045;52.268;10.506;2023-04-20T02:36:52;101002.28;;;5.65;100.00
32638;BME280;19045;52.268;10.506;2023-04-20T02:39:19;101002.72;;;5.62;100.00
32638;BME280;19045;52.268;10.506;2023-04-20T02:41:45;101001.63;;;5.76;100.00
32638;BME280;19045;52.268;10.506;2023-04-20T02:44:12;100999.97;;;5.82;100.00
32638;BME280;19045;52.268;10.506;2023-04-20T02:46:38;100997.91;;;5.77;100.00
32638;BME280;19045;52.268;10.506;2023-04-20T02:49:07;101001.63;;;5.76;100.00
32638;BME280;19045;52.268;10.506;2023-04-20T02:51:33;100997.91;;;5.77;100.00
32638;BME280;19045;52.268;10.506;2023-04-20T02:54:02;101004.88;;;5.85;100.00
32638;BME280;19045;52.268;10.506;2023-04-20T02:56:30;101000.34;;;5.85;100.00
32638;BME280;19045;52.268;10.506;2023-04-20T02:58:57;100994.19;;;5.85;100.00
32638;BME280;19045;52.268;10.506;2023-04-20T03:01:23;100997.28;;;5.82;100.00
32638;BME280;19045;52.268;10.506;2023-04-20T03:03:50;101002.63;;;5.88;100.00
32638;BME280;19045;52.268;10.506;2023-04-20T03:06:19;101001.38;;;5.91;100.00
32638;BME280;19045;52.268;10.506;2023-04-20T03:08:46;101004.28;;;5.83;100.00
32638;BME280;19045;52.268;10.506;2023-04-20T03:11:13;101002.19;;;5.85;100.00
32638;BME280;19045;52.268;10.506;2023-04-20T03:13:40;100998.50;;;5.92;100.00
32638;BME280;19045;52.268;10.506;2023-04-20T03:16:06;101000.34;;;5.85;100.00
32638;BME280;19045;52.268;10.506;2023-04-20T03:18:33;101000.94;;;5.94;100.00
32638;BME280;19045;52.268;10.506;2023-04-20T03:21:00;101003.22;;;5.90;100.00
32638;BME280;19045;52.268;10.506;2023-04-20T03:23:30;101007.34;;;5.93;100.00
32638;BME280;19045;52.268;10.506;2023-04-20T03:25:59;100997.28;;;5.88;100.00
32638;BME280;19045;52.268;10.506;2023-04-20T03:28:26;101016.31;;;5.98;100.00
32638;BME280;19045;52.268;10.506;2023-04-20T03:30:53;101005.47;;;5.93;100.00
32638;BME280;19045;52.268;10.506;2023-04-20T03:33:19;101005.69;;;5.85;100.00
32638;BME280;19045;52.268;10.506;2023-04-20T03:35:46;100996.47;;;5.88;100.00
32638;BME280;19045;52.268;10.506;2023-04-20T03:38:14;101013.47;;;5.93;100.00
32638;BME280;19045;52.268;10.506;2023-04-20T03:40:42;101012.88;;;5.91;100.00
32638;BME280;19045;52.268;10.506;2023-04-20T03:43:10;101018.00;;;5.93;100.00
32638;BME280;19045;52.268;10.506;2023-04-20T03:45:36;101016.56;;;5.90;100.00
32638;BME280;19045;52.268;10.506;2023-04-20T03:48:05;101010.78;;;5.93;100.00
32638;BME280;19045;52.268;10.506;2023-04-20T03:50:32;101008.94;;;5.94;100.00
32638;BME280;19045;52.268;10.506;2023-04-20T03:53:00;101007.28;;;6.06;100.00
32638;BME280;19045;52.268;10.506;2023-04-20T03:55:29;101007.69;;;6.03;100.00
32638;BME280;19045;52.268;10.506;2023-04-20T03:57:57;100998.25;;;6.00;100.00
32638;BME280;19045;52.268;10.506;2023-04-20T04:00:24;101009.16;;;5.99;100.00
32638;BME280;19045;52.268;10.506;2023-04-20T04:02:50;100997.63;;;6.05;100.00
32638;BME280;19045;52.268;10.506;2023-04-20T04:05:18;100993.31;;;6.04;100.00
32638;BME280;19045;52.268;10.506;2023-04-20T04:07:45;101008.31;;;5.98;100.00
32638;BME280;19045;52.268;10.506;2023-04-20T04:10:12;101002.00;;;5.93;100.00
32638;BME280;19045;52.268;10.506;2023-04-20T04:12:40;101005.81;;;6.03;100.00
32638;BME280;19045;52.268;10.506;2023-04-20T04:15:09;101001.50;;;6.09;100.00
32638;BME280;19045;52.268;10.506;2023-04-20T04:17:36;101001.94;;;6.06;100.00
32638;BME280;19045;52.268;10.506;2023-04-20T04:20:04;101007.03;;;6.07;100.00
32638;BME280;19045;52.268;10.506;2023-04-20T04:22:38;101004.81;;;6.04;100.00
32638;BME280;19045;52.268;10.506;2023-04-20T04:25:05;100998.69;;;5.97;100.00
32638;BME280;19045;52.268;10.506;2023-04-20T04:27:32;100991.53;;;5.91;100.00
32638;BME280;19045;52.268;10.506;2023-04-20T04:29:59;100994.44;;;5.90;100.00
32638;BME280;19045;52.268;10.506;2023-04-20T04:32:39;100987.63;;;5.94;100.00
32638;BME280;19045;52.268;10.506;2023-04-20T04:35:09;100990.94;;;5.89;100.00
32638;BME280;19045;52.268;10.506;2023-04-20T04:37:39;101001.19;;;5.92;100.00
32638;BME280;19045;52.268;10.506;2023-04-20T04:40:08;101000.16;;;5.87;100.00
32638;BME280;19045;52.268;10.506;2023-04-20T04:42:35;101002.03;;;5.86;100.00
32638;BME280;19045;52.268;10.506;2023-04-20T04:45:05;100993.22;;;5.86;100.00
32638;BME280;19045;52.268;10.506;2023-04-20T04:47:36;100999.38;;;5.86;100.00
32638;BME280;19045;52.268;10.506;2023-04-20T04:50:03;101012.28;;;5.83;100.00
32638;BME280;19045;52.268;10.506;2023-04-20T04:52:30;101005.28;;;5.82;100.00
32638;BME280;19045;52.268;10.506;2023-04-20T04:54:57;100999.75;;;5.90;100.00
32638;BME280;19045;52.268;10.506;2023-04-20T04:57:24;101004.03;;;5.91;100.00
32638;BME280;19045;52.268;10.506;2023-04-20T04:59:50;101009.34;;;5.97;100.00
32638;BME280;19045;52.268;10.506;2023-04-20T05:02:17;101003.19;;;5.97;100.00
32638;BME280;19045;52.268;10.506;2023-04-20T05:04:45;101006.25;;;6.00;100.00
32638;BME280;19045;52.268;10.506;2023-04-20T05:07:13;101010.75;;;6.06;100.00
32638;BME280;19045;52.268;10.506;2023-04-20T05:09:41;101015.47;;;6.04;100.00
32638;BME280;19045;52.268;10.506;2023-04-20T05:12:08;101019.31;;;6.15;100.00
32638;BME280;19045;52.268;10.506;2023-04-20T05:14:34;101012.94;;;6.22;100.00
32638;BME280;19045;52.268;10.506;2023-04-20T05:17:01;101014.16;;;6.20;100.00
32638;BME280;19045;52.268;10.506;2023-04-20T05:19:28;101017.84;;;6.26;100.00
32638;BME280;19045;52.268;10.506;2023-04-20T05:21:56;101019.03;;;6.30;100.00
32638;BME280;19045;52.268;10.506;2023-04-20T05:24:24;101028.00;;;6.42;100.00
32638;BME280;19045;52.268;10.506;2023-04-20T05:26:51;101028.53;;;6.50;100.00
32638;BME280;19045;52.268;10.506;2023-04-20T05:29:18;101020.63;;;6.68;97.72
32638;BME280;19045;52.268;10.506;2023-04-20T05:31:44;101037.13;;;6.84;96.61
32638;BME280;19045;52.268;10.506;2023-04-20T05:34:12;101036.09;;;7.09;95.00
32638;BME280;19045;52.268;10.506;2023-04-20T05:36:39;101040.44;;;7.28;92.57
32638;BME280;19045;52.268;10.506;2023-04-20T05:39:10;101042.50;;;7.26;91.43
32638;BME280;19045;52.268;10.506;2023-04-20T05:41:37;101051.00;;;7.42;92.03
32638;BME280;19045;52.268;10.506;2023-04-20T05:44:05;101052.28;;;7.57;89.36
32638;BME280;19045;52.268;10.506;2023-04-20T05:46:31;101055.78;;;7.58;88.88
32638;BME280;19045;52.268;10.506;2023-04-20T05:49:00;101065.56;;;7.64;88.59
32638;BME280;19045;52.268;10.506;2023-04-20T05:51:30;101060.69;;;7.97;88.39
32638;BME280;19045;52.268;10.506;2023-04-20T05:53:58;101058.88;;;8.09;86.45
32638;BME280;19045;52.268;10.506;2023-04-20T05:56:26;101061.13;;;7.94;87.79
32638;BME280;19045;52.268;10.506;2023-04-20T05:58:53;101059.41;;;7.63;88.95
32638;BME280;19045;52.268;10.506;2023-04-20T06:01:20;101062.53;;;7.42;90.04
32638;BME280;19045;52.268;10.506;2023-04-20T06:03:47;101060.50;;;7.38;91.06
32638;BME280;19045;52.268;10.506;2023-04-20T06:06:13;101063.13;;;7.44;91.09
32638;BME280;19045;52.268;10.506;2023-04-20T06:08:40;101065.59;;;7.39;92.13
32638;BME280;19045;52.268;10.506;2023-04-20T06:11:07;101068.34;;;7.33;92.50
32638;BME280;19045;52.268;10.506;2023-04-20T06:13:35;101067.94;;;7.36;93.43
32638;BME280;19045;52.268;10.506;2023-04-20T06:16:01;101065.72;;;7.51;93.26
32638;BME280;19045;52.268;10.506;2023-04-20T06:18:30;101062.88;;;7.46;91.83
32638;BME280;19045;52.268;10.506;2023-04-20T06:20:57;101057.69;;;7.51;92.10
32638;BME280;19045;52.268;10.506;2023-04-20T06:23:25;101067.34;;;7.52;93.02
32638;BME280;19045;52.268;10.506;2023-04-20T06:25:52;101067.34;;;7.70;92.20
32638;BME280;19045;52.268;10.506;2023-04-20T06:28:20;101069.00;;;7.71;91.63
32638;BME280;19045;52.268;10.506;2023-04-20T06:30:48;101064.75;;;8.00;91.40
32638;BME280;19045;52.268;10.506;2023-04-20T06:33:15;101066.28;;;8.25;89.41
32638;BME280;19045;52.268;10.506;2023-04-20T06:35:42;101061.22;;;8.36;87.93
32638;BME280;19045;52.268;10.506;2023-04-20T06:38:10;101074.47;;;8.12;86.50
32638;BME280;19045;52.268;10.506;2023-04-20T06:40:37;101066.09;;;7.91;87.70
32638;BME280;19045;52.268;10.506;2023-04-20T06:43:04;101079.63;;;7.96;87.70
32638;BME280;19045;52.268;10.506;2023-04-20T06:45:30;101067.06;;;7.96;89.29
32638;BME280;19045;52.268;10.506;2023-04-20T06:47:58;101068.56;;;7.74;88.06
32638;BME280;19045;52.268;10.506;2023-04-20T06:50:25;101068.84;;;7.84;88.80
32638;BME280;19045;52.268;10.506;2023-04-20T06:52:52;101071.53;;;7.84;88.17
32638;BME280;19045;52.268;10.506;2023-04-20T06:55:18;101070.06;;;7.88;87.83
32638;BME280;19045;52.268;10.506;2023-04-20T06:57:45;101072.81;;;7.82;87.98
32638;BME280;19045;52.268;10.506;2023-04-20T07:00:13;101060.22;;;8.00;87.52
32638;BME280;19045;52.268;10.506;2023-04-20T07:02:44;101072.56;;;8.01;85.13
32638;BME280;19045;52.268;10.506;2023-04-20T07:05:12;101066.84;;;7.98;86.45
32638;BME280;19045;52.268;10.506;2023-04-20T07:07:39;101079.03;;;7.94;86.71
32638;BME280;19045;52.268;10.506;2023-04-20T07:10:06;101068.66;;;8.15;86.18
32638;BME280;19045;52.268;10.506;2023-04-20T07:12:33;101073.38;;;8.38;85.28
32638;BME280;19045;52.268;10.506;2023-04-20T07:15:01;101070.63;;;8.56;83.95
32638;BME280;19045;52.268;10.506;2023-04-20T07:17:28;101080.13;;;8.82;82.68
32638;BME280;19045;52.268;10.506;2023-04-20T07:19:55;101067.59;;;9.06;81.78
32638;BME280;19045;52.268;10.506;2023-04-20T07:22:24;101073.56;;;9.19;80.53
32638;BME280;19045;52.268;10.506;2023-04-20T07:24:51;101071.63;;;8.73;80.61
32638;BME280;19045;52.268;10.506;2023-04-20T07:27:17;101076.06;;;8.79;81.03
32638;BME280;19045;52.268;10.506;2023-04-20T07:29:44;101072.34;;;8.92;81.28
32638;BME280;19045;52.268;10.506;2023-04-20T07:32:11;101082.38;;;9.08;81.08
32638;BME280;19045;52.268;10.506;2023-04-20T07:34:38;101077.97;;;9.25;78.92
32638;BME280;19045;52.268;10.506;2023-04-20T07:37:05;101075.19;;;9.32;78.97
32638;BME280;19045;52.268;10.506;2023-04-20T07:39:33;101079.03;;;9.01;78.58
32638;BME280;19045;52.268;10.506;2023-04-20T07:42:01;101073.88;;;9.00;76.54
32638;BME280;19045;52.268;10.506;2023-04-20T07:44:28;101091.84;;;9.22;75.93
32638;BME280;19045;52.268;10.506;2023-04-20T07:46:55;101085.91;;;9.20;73.45
32638;BME280;19045;52.268;10.506;2023-04-20T07:49:24;101088.38;;;9.57;72.54
32638;BME280;19045;52.268;10.506;2023-04-20T07:51:51;101083.22;;;9.78;70.72
32638;BME280;19045;52.268;10.506;2023-04-20T07:54:18;101088.53;;;10.02;69.82
32638;BME280;19045;52.268;10.506;2023-04-20T07:56:46;101098.06;;;10.32;69.21
32638;BME280;19045;52.268;10.506;2023-04-20T07:59:12;101093.44;;;10.45;68.74
32638;BME280;19045;52.268;10.506;2023-04-20T08:01:39;101086.78;;;10.19;70.45
32638;BME280;19045;52.268;10.506;2023-04-20T08:04:06;101089.63;;;9.89;70.43
32638;BME280;19045;52.268;10.506;2023-04-20T08:06:32;101094.28;;;9.94;70.21
32638;BME280;19045;52.268;10.506;2023-04-20T08:08:59;101110.59;;;10.55;67.42
32638;BME280;19045;52.268;10.506;2023-04-20T08:11:25;101095.50;;;10.54;66.50
32638;BME280;19045;52.268;10.506;2023-04-20T08:13:53;101084.66;;;10.21;68.15
32638;BME280;19045;52.268;10.506;2023-04-20T08:16:20;101105.56;;;10.19;67.71
32638;BME280;19045;52.268;10.506;2023-04-20T08:18:47;101106.97;;;10.10;68.98
32638;BME280;19045;52.268;10.506;2023-04-20T08:21:13;101099.75;;;9.99;70.47
32638;BME280;19045;52.268;10.506;2023-04-20T08:23:40;101100.00;;;9.97;68.89
32638;BME280;19045;52.268;10.506;2023-04-20T08:26:06;101096.84;;;9.88;67.53
32638;BME280;19045;52.268;10.506;2023-04-20T08:28:33;101102.91;;;9.96;67.29
32638;BME280;19045;52.268;10.506;2023-04-20T08:31:04;101101.47;;;10.05;67.24
32638;BME280;19045;52.268;10.506;2023-04-20T08:33:31;101103.09;;;10.57;65.75
32638;BME280;19045;52.268;10.506;2023-04-20T08:35:57;101097.63;;;11.30;63.88
32638;BME280;19045;52.268;10.506;2023-04-20T08:38:24;101101.38;;;12.44;59.93
32638;BME280;19045;52.268;10.506;2023-04-20T08:40:50;101091.75;;;13.39;54.82
32638;BME280;19045;52.268;10.506;2023-04-20T08:43:19;101097.41;;;13.06;53.14
32638;BME280;19045;52.268;10.506;2023-04-20T08:45:47;101107.06;;;12.26;55.26
32638;BME280;19045;52.268;10.506;2023-04-20T08:48:18;101101.28;;;11.58;57.03
32638;BME280;19045;52.268;10.506;2023-04-20T08:50:46;101104.66;;;11.15;59.32
32638;BME280;19045;52.268;10.506;2023-04-20T08:53:13;101104.06;;;10.79;59.64
32638;BME280;19045;52.268;10.506;2023-04-20T08:55:40;101109.63;;;10.61;60.23
32638;BME280;19045;52.268;10.506;2023-04-20T08:58:06;101102.09;;;10.47;60.16
32638;BME280;19045;52.268;10.506;2023-04-20T09:00:33;101105.19;;;10.67;60.73
32638;BME280;19045;52.268;10.506;2023-04-20T09:02:59;101103.22;;;10.22;61.93
32638;BME280;19045;52.268;10.506;2023-04-20T09:05:29;101108.94;;;10.54;61.17
32638;BME280;19045;52.268;10.506;2023-04-20T09:07:57;101097.88;;;10.96;59.95
32638;BME280;19045;52.268;10.506;2023-04-20T09:10:25;101110.31;;;11.30;57.48
32638;BME280;19045;52.268;10.506;2023-04-20T09:12:52;101119.47;;;11.51;57.10
32638;BME280;19045;52.268;10.506;2023-04-20T09:15:26;101108.47;;;12.29;55.51
32638;BME280;19045;52.268;10.506;2023-04-20T09:17:53;101108.31;;;12.62;52.72
32638;BME280;19045;52.268;10.506;2023-04-20T09:20:29;101124.50;;;12.19;53.60
32638;BME280;19045;52.268;10.506;2023-04-20T09:22:56;101104.31;;;11.78;55.18
32638;BME280;19045;52.268;10.506;2023-04-20T09:25:23;101104.63;;;11.81;55.09
32638;BME280;19045;52.268;10.506;2023-04-20T09:27:56;101110.28;;;11.63;54.91
32638;BME280;19045;52.268;10.506;2023-04-20T09:30:23;101124.53;;;11.64;55.46
32638;BME280;19045;52.268;10.506;2023-04-20T09:33:00;101118.09;;;11.65;56.08
32638;BME280;19045;52.268;10.506;2023-04-20T09:35:26;101111.97;;;12.51;55.20
32638;BME280;19045;52.268;10.506;2023-04-20T09:37:54;101114.47;;;14.42;50.37
32638;BME280;19045;52.268;10.506;2023-04-20T09:40:23;101120.59;;;16.39;44.15
32638;BME280;19045;52.268;10.506;2023-04-20T09:42:52;101119.16;;;15.93;44.13
32638;BME280;19045;52.268;10.506;2023-04-20T09:45:19;101110.00;;;15.18;45.80
32638;BME280;19045;52.268;10.506;2023-04-20T09:47:46;101122.59;;;14.52;46.70
32638;BME280;19045;52.268;10.506;2023-04-20T09:50:15;101121.56;;;14.01;47.84
32638;BME280;19045;52.268;10.506;2023-04-20T09:52:42;101121.25;;;13.51;49.14
32638;BME280;19045;52.268;10.506;2023-04-20T09:55:10;101118.94;;;13.32;50.39
32638;BME280;19045;52.268;10.506;2023-04-20T09:57:38;101129.69;;;12.69;51.86
32638;BME280;19045;52.268;10.506;2023-04-20T10:00:07;101119.53;;;12.54;52.01
32638;BME280;19045;52.268;10.506;2023-04-20T10:02:35;101142.09;;;12.26;51.95
32638;BME280;19045;52.268;10.506;2023-04-20T10:05:02;101127.94;;;12.14;51.94
32638;BME280;19045;52.268;10.506;2023-04-20T10:07:30;101112.00;;;14.35;47.35
32638;BME280;19045;52.268;10.506;2023-04-20T10:10:05;101118.09;;;16.48;42.49
32638;BME280;19045;52.268;10.506;2023-04-20T10:12:45;101108.44;;;19.04;38.36
32638;BME280;19045;52.268;10.506;2023-04-20T10:15:11;101114.78;;;19.32;37.04
32638;BME280;19045;52.268;10.506;2023-04-20T10:17:38;101111.34;;;16.94;40.37
32638;BME280;19045;52.268;10.506;2023-04-20T10:20:17;101112.66;;;16.58;41.99
32638;BME280;19045;52.268;10.506;2023-04-20T10:22:44;101107.00;;;18.75;38.78
32638;BME280;19045;52.268;10.506;2023-04-20T10:25:14;101104.41;;;18.22;39.26
32638;BME280;19045;52.268;10.506;2023-04-20T10:27:53;101123.09;;;17.52;39.91
32638;BME280;19045;52.268;10.506;2023-04-20T10:30:21;101120.63;;;18.32;39.03
32638;BME280;19045;52.268;10.506;2023-04-20T10:32:48;101119.53;;;18.10;38.32
32638;BME280;19045;52.268;10.506;2023-04-20T10:35:17;101129.22;;;16.57;41.06
32638;BME280;19045;52.268;10.506;2023-04-20T10:37:48;101129.75;;;15.09;43.53
32638;BME280;19045;52.268;10.506;2023-04-20T10:40:16;101133.97;;;14.02;46.24
32638;BME280;19045;52.268;10.506;2023-04-20T10:42:44;101125.91;;;14.07;47.04
32638;BME280;19045;52.268;10.506;2023-04-20T10:45:12;101128.50;;;13.82;47.45
32638;BME280;19045;52.268;10.506;2023-04-20T10:47:39;101125.38;;;13.58;48.22
32638;BME280;19045;52.268;10.506;2023-04-20T10:50:10;101103.44;;;14.54;45.57
32638;BME280;19045;52.268;10.506;2023-04-20T10:52:39;101121.44;;;14.28;45.74
32638;BME280;19045;52.268;10.506;2023-04-20T10:55:17;101108.50;;;13.83;46.44
32638;BME280;19045;52.268;10.506;2023-04-20T10:57:44;101105.22;;;13.76;46.75
32638;BME280;19045;52.268;10.506;2023-04-20T11:00:16;101105.13;;;15.71;42.93
32638;BME280;19045;52.268;10.506;2023-04-20T11:02:46;101096.06;;;16.06;42.69
32638;BME280;19045;52.268;10.506;2023-04-20T11:05:13;101088.69;;;17.72;39.33
32638;BME280;19045;52.268;10.506;2023-04-20T11:07:46;101084.81;;;18.44;38.28
32638;BME280;19045;52.268;10.506;2023-04-20T11:10:13;101081.03;;;18.40;38.57
32638;BME280;19045;52.268;10.506;2023-04-20T11:12:40;101105.41;;;16.87;40.50
32638;BME280;19045;52.268;10.506;2023-04-20T11:15:07;101087.41;;;15.98;41.80
32638;BME280;19045;52.268;10.506;2023-04-20T11:17:36;101091.06;;;15.13;43.22
32638;BME280;19045;52.268;10.506;2023-04-20T11:20:05;101083.22;;;14.09;45.87
32638;BME280;19045;52.268;10.506;2023-04-20T11:22:35;101089.00;;;13.71;47.28
32638;BME280;19045;52.268;10.506;2023-04-20T11:25:03;101084.81;;;13.53;47.76
32638;BME280;19045;52.268;10.506;2023-04-20T11:27:31;101085.69;;;14.16;46.76
32638;BME280;19045;52.268;10.506;2023-04-20T11:29:58;101081.56;;;15.46;44.38
32638;BME280;19045;52.268;10.506;2023-04-20T11:32:25;101066.06;;;16.41;42.30
32638;BME280;19045;52.268;10.506;2023-04-20T11:35:00;101058.03;;;17.09;41.29
32638;BME280;19045;52.268;10.506;2023-04-20T11:37:29;101078.94;;;17.08;40.36
32638;BME280;19045;52.268;10.506;2023-04-20T11:40:00;101060.38;;;16.86;40.48
32638;BME280;19045;52.268;10.506;2023-04-20T11:42:28;101075.06;;;17.19;40.67
32638;BME280;19045;52.268;10.506;2023-04-20T11:44:55;101067.09;;;15.91;41.33
32638;BME280;19045;52.268;10.506;2023-04-20T11:47:22;101077.81;;;14.81;43.96
32638;BME280;19045;52.268;10.506;2023-04-20T11:49:48;101066.91;;;13.84;45.86
32638;BME280;19045;52.268;10.506;2023-04-20T11:52:16;101063.22;;;13.48;47.45
32638;BME280;19045;52.268;10.506;2023-04-20T11:54:43;101050.50;;;13.43;47.91
32638;BME280;19045;52.268;10.506;2023-04-20T11:57:10;101068.09;;;13.51;48.47
32638;BME280;19045;52.268;10.506;2023-04-20T11:59:36;101062.34;;;13.42;48.32
32638;BME280;19045;52.268;10.506;2023-04-20T12:02:03;101062.28;;;13.32;48.01
32638;BME280;19045;52.268;10.506;2023-04-20T12:04:30;101061.09;;;13.55;48.18
32638;BME280;19045;52.268;10.506;2023-04-20T12:06:58;101056.38;;;13.82;47.91
32638;BME280;19045;52.268;10.506;2023-04-20T12:09:27;101053.38;;;13.74;47.91
32638;BME280;19045;52.268;10.506;2023-04-20T12:11:54;101055.03;;;13.06;50.10
32638;BME280;19045;52.268;10.506;2023-04-20T12:14:22;101067.25;;;12.82;51.01
32638;BME280;19045;52.268;10.506;2023-04-20T12:16:50;101055.31;;;12.46;52.19
32638;BME280;19045;52.268;10.506;2023-04-20T12:19:17;101060.09;;;12.66;52.68
32638;BME280;19045;52.268;10.506;2023-04-20T12:21:44;101055.28;;;12.73;52.36
32638;BME280;19045;52.268;10.506;2023-04-20T12:24:12;101062.31;;;12.47;52.05
32638;BME280;19045;52.268;10.506;2023-04-20T12:26:40;101052.56;;;12.41;53.31
32638;BME280;19045;52.268;10.506;2023-04-20T12:29:06;101053.88;;;12.38;52.57
32638;BME280;19045;52.268;10.506;2023-04-20T12:31:33;101048.72;;;11.88;53.26
32638;BME280;19045;52.268;10.506;2023-04-20T12:34:00;101039.66;;;11.73;54.87
32638;BME280;19045;52.268;10.506;2023-04-20T12:36:27;101047.91;;;11.88;54.01
32638;BME280;19045;52.268;10.506;2023-04-20T12:38:54;101036.13;;;11.94;54.32
32638;BME280;19045;52.268;10.506;2023-04-20T12:41:20;101048.91;;;11.82;54.29
32638;BME280;19045;52.268;10.506;2023-04-20T12:43:49;101038.16;;;11.65;55.05
32638;BME280;19045;52.268;10.506;2023-04-20T12:46:16;101038.63;;;11.40;55.26